Terminal Aerodrome Forecast
Issued by NWS Chicago, IL

Home | Current Version | Previous Version | Graphics & Text | Print | Product List | Glossary On
Versions: 1 2 3 4 5 6 7 8 9 10 11 12 13 14 15 16 17 18 19 20 21 22 23 24
000
FTUS43 KLOT 181134
TAFRFD
TAF
KRFD 181134Z 1812/1912 04004KT P6SM SCT250
     FM181400 07006KT P6SM SCT120 BKN250
     FM190400 11003KT P6SM BKN040 OVC100 PROB30 1904/1909 -SHRA=

USA.gov is the U.S. government's official web portal to all federal, state and local government web resources and services.